PWSweather.com
Personal Weather Stations
Station Observations
SHAHALMS1
Eftra, Falkenberg, HA

EftraFalkenberg, HA

Lat: 56.85, Lon: 12.65

Elevation: 140

Station Type:

http://hem.passagen.se/risarp101

High Low Average
Temperature 66.0°F18.9°C 39.9°F4.4°C 53.1°F11.7°C
Dew Point 46.3°F7.9°C 29.1°F-1.6°C 36.9°F2.7°C
Winds 7.7 mph 12.4 kmh Calm Calm 2.0 mph SSE3.2 kmh SSE
Wind Gusts 19.3 mph31.1 kmh -- 6.0 mph9.7 kmh
Humidity 70% 43% 55%
Pressure 30.45 in1031.2 mb 30.33 in1027.1 mb -
Precipitation 0.00 in0.0 mm - -
Hour Temp Dew Point Humidity Winds Wind Gusts Pressure Precip Precip Rate Daily Precip Total
12:00 AM 45.5°F7.5°C 31.6°F-0.2°C 58% Calm Calm 1.4 mph2.3 kmh 30.45 in1031.2 mb 0.00 in0.0 mm 0.00 in0.0 mm 0.00 in0.0 mm
12:10 AM 45.5°F7.5°C 31.6°F-0.2°C 58% Calm Calm -- 30.45 in1031.2 mb 0.00 in0.0 mm 0.00 in0.0 mm 0.00 in0.0 mm
12:20 AM 45.1°F7.3°C 31.7°F-0.2°C 59% 1.4 mph E2.3 kmh E 6.4 mph10.3 kmh 30.45 in1031.2 mb 0.00 in0.0 mm 0.00 in0.0 mm 0.00 in0.0 mm
12:30 AM 44.8°F7.1°C 31.7°F-0.2°C 60% 0.2 mph E0.3 kmh E 5.0 mph8.0 kmh 30.45 in1031.2 mb 0.00 in0.0 mm 0.00 in0.0 mm 0.00 in0.0 mm
12:40 AM 44.6°F7.0°C 31.6°F-0.2°C 60% Calm Calm -- 30.45 in1031.2 mb 0.00 in0.0 mm 0.00 in0.0 mm 0.00 in0.0 mm
12:50 AM 44.2°F6.8°C 30.8°F-0.7°C 59% Calm Calm -- 30.45 in1031.2 mb 0.00 in0.0 mm 0.00 in0.0 mm 0.00 in0.0 mm
01:00 AM 43.9°F6.6°C 30.9°F-0.6°C 60% Calm Calm -- 30.42 in1030.1 mb 0.00 in0.0 mm 0.00 in0.0 mm 0.00 in0.0 mm
01:10 AM 43.5°F6.4°C 30.5°F-0.8°C 60% 0.1 mph W0.2 kmh W 2.1 mph3.4 kmh 30.42 in1030.1 mb 0.00 in0.0 mm 0.00 in0.0 mm 0.00 in0.0 mm
01:20 AM 43.2°F6.2°C 30.2°F-1.0°C 60% Calm Calm -- 30.42 in1030.1 mb 0.00 in0.0 mm 0.00 in0.0 mm 0.00 in0.0 mm
01:30 AM 42.8°F6.0°C 29.9°F-1.2°C 60% Calm Calm -- 30.42 in1030.1 mb 0.00 in0.0 mm 0.00 in0.0 mm 0.00 in0.0 mm
01:40 AM 42.3°F5.7°C 29.8°F-1.2°C 61% Calm Calm -- 30.42 in1030.1 mb 0.00 in0.0 mm 0.00 in0.0 mm 0.00 in0.0 mm
01:50 AM 41.7°F5.4°C 29.3°F-1.5°C 61% 0.1 mph W0.2 kmh W 3.9 mph6.3 kmh 30.42 in1030.1 mb 0.00 in0.0 mm 0.00 in0.0 mm 0.00 in0.0 mm
02:00 AM 41.5°F5.3°C 29.5°F-1.4°C 62% 0.5 mph W0.8 kmh W 3.9 mph6.3 kmh 30.42 in1030.1 mb 0.00 in0.0 mm 0.00 in0.0 mm 0.00 in0.0 mm
02:10 AM 41.2°F5.1°C 29.1°F-1.6°C 62% Calm Calm -- 30.42 in1030.1 mb 0.00 in0.0 mm 0.00 in0.0 mm 0.00 in0.0 mm
02:20 AM 41.0°F5.0°C 29.4°F-1.4°C 63% Calm Calm -- 30.42 in1030.1 mb 0.00 in0.0 mm 0.00 in0.0 mm 0.00 in0.0 mm
02:30 AM 40.8°F4.9°C 29.2°F-1.6°C 63% Calm Calm -- 30.45 in1031.2 mb 0.00 in0.0 mm 0.00 in0.0 mm 0.00 in0.0 mm
02:40 AM 40.8°F4.9°C 29.2°F-1.6°C 63% Calm Calm -- 30.45 in1031.2 mb 0.00 in0.0 mm 0.00 in0.0 mm 0.00 in0.0 mm
02:50 AM 40.6°F4.8°C 29.4°F-1.4°C 64% Calm Calm -- 30.42 in1030.1 mb 0.00 in0.0 mm 0.00 in0.0 mm 0.00 in0.0 mm
03:00 AM 40.5°F4.7°C 29.2°F-1.6°C 64% Calm Calm -- 30.42 in1030.1 mb 0.00 in0.0 mm 0.00 in0.0 mm 0.00 in0.0 mm
03:10 AM 40.5°F4.7°C 29.2°F-1.6°C 64% 0.1 mph SE0.2 kmh SE 2.1 mph3.4 kmh 30.42 in1030.1 mb 0.00 in0.0 mm 0.00 in0.0 mm 0.00 in0.0 mm
03:20 AM 40.3°F4.6°C 29.4°F-1.4°C 65% Calm Calm -- 30.42 in1030.1 mb 0.00 in0.0 mm 0.00 in0.0 mm 0.00 in0.0 mm
03:30 AM 40.3°F4.6°C 29.4°F-1.4°C 65% Calm Calm -- 30.42 in1030.1 mb 0.00 in0.0 mm 0.00 in0.0 mm 0.00 in0.0 mm
03:40 AM 40.1°F4.5°C 29.6°F-1.3°C 66% Calm Calm -- 30.42 in1030.1 mb 0.00 in0.0 mm 0.00 in0.0 mm 0.00 in0.0 mm
03:50 AM 40.1°F4.5°C 29.6°F-1.3°C 66% Calm Calm -- 30.42 in1030.1 mb 0.00 in0.0 mm 0.00 in0.0 mm 0.00 in0.0 mm
04:00 AM 39.9°F4.4°C 29.5°F-1.4°C 66% Calm Calm -- 30.42 in1030.1 mb 0.00 in0.0 mm 0.00 in0.0 mm 0.00 in0.0 mm
04:10 AM 39.9°F4.4°C 29.8°F-1.2°C 67% Calm Calm -- 30.42 in1030.1 mb 0.00 in0.0 mm 0.00 in0.0 mm 0.00 in0.0 mm
04:20 AM 40.1°F4.5°C 30.0°F-1.1°C 67% Calm Calm -- 30.39 in1029.1 mb 0.00 in0.0 mm 0.00 in0.0 mm 0.00 in0.0 mm
04:30 AM 40.3°F4.6°C 30.6°F-0.8°C 68% Calm Calm -- 30.45 in1031.2 mb 0.00 in0.0 mm 0.00 in0.0 mm 0.00 in0.0 mm
04:40 AM 40.5°F4.7°C 30.7°F-0.7°C 68% Calm Calm -- 30.45 in1031.2 mb 0.00 in0.0 mm 0.00 in0.0 mm 0.00 in0.0 mm
04:50 AM 40.6°F4.8°C 31.3°F-0.4°C 69% Calm Calm -- 30.39 in1029.1 mb 0.00 in0.0 mm 0.00 in0.0 mm 0.00 in0.0 mm
05:00 AM 41.0°F5.0°C 31.6°F-0.2°C 69% 0.3 mph E0.5 kmh E 3.6 mph5.8 kmh 30.39 in1029.1 mb 0.00 in0.0 mm 0.00 in0.0 mm 0.00 in0.0 mm
05:10 AM 41.2°F5.1°C 31.8°F-0.1°C 69% 0.5 mph E0.8 kmh E 5.0 mph8.0 kmh 30.39 in1029.1 mb 0.00 in0.0 mm 0.00 in0.0 mm 0.00 in0.0 mm
05:20 AM 41.5°F5.3°C 32.5°F0.3°C 70% 0.1 mph E0.2 kmh E 2.5 mph4.0 kmh 30.42 in1030.1 mb 0.00 in0.0 mm 0.00 in0.0 mm 0.00 in0.0 mm
05:30 AM 42.1°F5.6°C 33.0°F0.6°C 70% 0.5 mph E0.8 kmh E 3.9 mph6.3 kmh 30.42 in1030.1 mb 0.00 in0.0 mm 0.00 in0.0 mm 0.00 in0.0 mm
05:40 AM 42.4°F5.8°C 33.3°F0.7°C 70% Calm Calm -- 30.42 in1030.1 mb 0.00 in0.0 mm 0.00 in0.0 mm 0.00 in0.0 mm
05:50 AM 43.0°F6.1°C 33.9°F1.1°C 70% Calm Calm -- 30.42 in1030.1 mb 0.00 in0.0 mm 0.00 in0.0 mm 0.00 in0.0 mm
06:00 AM 43.7°F6.5°C 34.6°F1.4°C 70% Calm Calm -- 30.42 in1030.1 mb 0.00 in0.0 mm 0.00 in0.0 mm 0.00 in0.0 mm
06:10 AM 44.2°F6.8°C 35.1°F1.7°C 70% 0.1 mph E0.2 kmh E 3.9 mph6.3 kmh 30.42 in1030.1 mb 0.00 in0.0 mm 0.00 in0.0 mm 0.00 in0.0 mm
06:20 AM 45.0°F7.2°C 35.8°F2.1°C 70% 0.2 mph E0.3 kmh E 3.9 mph6.3 kmh 30.42 in1030.1 mb 0.00 in0.0 mm 0.00 in0.0 mm 0.00 in0.0 mm
06:30 AM 45.7°F7.6°C 36.5°F2.5°C 70% 1.2 mph E1.9 kmh E 5.4 mph8.7 kmh 30.42 in1030.1 mb 0.00 in0.0 mm 0.00 in0.0 mm 0.00 in0.0 mm
06:40 AM 46.4°F8.0°C 37.1°F2.8°C 70% 0.3 mph E0.5 kmh E 5.0 mph8.0 kmh 30.42 in1030.1 mb 0.00 in0.0 mm 0.00 in0.0 mm 0.00 in0.0 mm
06:50 AM 47.5°F8.6°C 37.8°F3.2°C 69% 1.5 mph E2.4 kmh E 7.9 mph12.7 kmh 30.42 in1030.1 mb 0.00 in0.0 mm 0.00 in0.0 mm 0.00 in0.0 mm
07:00 AM 48.6°F9.2°C 38.8°F3.8°C 69% 0.5 mph E0.8 kmh E 5.7 mph9.2 kmh 30.42 in1030.1 mb 0.00 in0.0 mm 0.00 in0.0 mm 0.00 in0.0 mm
07:10 AM 49.6°F9.8°C 39.5°F4.2°C 68% 2.1 mph E3.4 kmh E 7.9 mph12.7 kmh 30.42 in1030.1 mb 0.00 in0.0 mm 0.00 in0.0 mm 0.00 in0.0 mm
07:20 AM 50.7°F10.4°C 39.8°F4.3°C 66% 1.3 mph E2.1 kmh E 9.3 mph15.0 kmh 30.42 in1030.1 mb 0.00 in0.0 mm 0.00 in0.0 mm 0.00 in0.0 mm
07:30 AM 51.8°F11.0°C 40.4°F4.7°C 65% 3.1 mph E5.0 kmh E 8.9 mph14.3 kmh 30.42 in1030.1 mb 0.00 in0.0 mm 0.00 in0.0 mm 0.00 in0.0 mm
07:40 AM 52.5°F11.4°C 40.7°F4.8°C 64% 1.6 mph ESE2.6 kmh ESE 6.8 mph10.9 kmh 30.42 in1030.1 mb 0.00 in0.0 mm 0.00 in0.0 mm 0.00 in0.0 mm
07:50 AM 53.2°F11.8°C 40.5°F4.7°C 62% 0.7 mph E1.1 kmh E 5.4 mph8.7 kmh 30.42 in1030.1 mb 0.00 in0.0 mm 0.00 in0.0 mm 0.00 in0.0 mm
08:00 AM 53.8°F12.1°C 40.6°F4.8°C 61% 2.3 mph E3.7 kmh E 8.6 mph13.8 kmh 30.42 in1030.1 mb 0.00 in0.0 mm 0.00 in0.0 mm 0.00 in0.0 mm
08:10 AM 54.5°F12.5°C 40.9°F4.9°C 60% 1.4 mph E2.3 kmh E 8.9 mph14.3 kmh 30.42 in1030.1 mb 0.00 in0.0 mm 0.00 in0.0 mm 0.00 in0.0 mm
08:20 AM 55.2°F12.9°C 41.1°F5.1°C 59% 2.9 mph E4.7 kmh E 10.0 mph16.1 kmh 30.42 in1030.1 mb 0.00 in0.0 mm 0.00 in0.0 mm 0.00 in0.0 mm
08:30 AM 55.8°F13.2°C 41.2°F5.1°C 58% 5.0 mph ESE8.0 kmh ESE 10.7 mph17.2 kmh 30.42 in1030.1 mb 0.00 in0.0 mm 0.00 in0.0 mm 0.00 in0.0 mm
08:40 AM 56.3°F13.5°C 41.3°F5.2°C 57% 3.4 mph ESE5.5 kmh ESE 8.9 mph14.3 kmh 30.42 in1030.1 mb 0.00 in0.0 mm 0.00 in0.0 mm 0.00 in0.0 mm
08:50 AM 56.8°F13.8°C 40.8°F4.9°C 55% 2.0 mph ESE3.2 kmh ESE 10.0 mph16.1 kmh 30.42 in1030.1 mb 0.00 in0.0 mm 0.00 in0.0 mm 0.00 in0.0 mm
09:00 AM 56.8°F13.8°C 39.9°F4.4°C 53% 0.6 mph N1.0 kmh N 5.7 mph9.2 kmh 30.45 in1031.2 mb 0.00 in0.0 mm 0.00 in0.0 mm 0.00 in0.0 mm
09:10 AM 57.4°F14.1°C 40.4°F4.7°C 53% 0.3 mph ENE0.5 kmh ENE 4.7 mph7.6 kmh 30.45 in1031.2 mb 0.00 in0.0 mm 0.00 in0.0 mm 0.00 in0.0 mm
09:20 AM 58.1°F14.5°C 40.6°F4.8°C 52% 0.5 mph E0.8 kmh E 6.4 mph10.3 kmh 30.42 in1030.1 mb 0.00 in0.0 mm 0.00 in0.0 mm 0.00 in0.0 mm
09:30 AM 58.8°F14.9°C 40.7°F4.8°C 51% 1.0 mph SSE1.6 kmh SSE 6.8 mph10.9 kmh 30.45 in1031.2 mb 0.00 in0.0 mm 0.00 in0.0 mm 0.00 in0.0 mm
09:40 AM 59.5°F15.3°C 41.4°F5.2°C 51% 1.3 mph SW2.1 kmh SW 6.4 mph10.3 kmh 30.45 in1031.2 mb 0.00 in0.0 mm 0.00 in0.0 mm 0.00 in0.0 mm
09:50 AM 59.7°F15.4°C 42.1°F5.6°C 52% 3.8 mph WSW6.1 kmh WSW 8.9 mph14.3 kmh 30.42 in1030.1 mb 0.00 in0.0 mm 0.00 in0.0 mm 0.00 in0.0 mm
10:00 AM 59.7°F15.4°C 42.6°F5.9°C 53% 4.4 mph WSW7.1 kmh WSW 9.7 mph15.6 kmh 30.42 in1030.1 mb 0.00 in0.0 mm 0.00 in0.0 mm 0.00 in0.0 mm
10:10 AM 59.9°F15.5°C 43.2°F6.2°C 54% 4.2 mph W6.8 kmh W 8.9 mph14.3 kmh 30.42 in1030.1 mb 0.00 in0.0 mm 0.00 in0.0 mm 0.00 in0.0 mm
10:20 AM 59.7°F15.4°C 43.0°F6.1°C 54% 2.2 mph W3.5 kmh W 6.4 mph10.3 kmh 30.42 in1030.1 mb 0.00 in0.0 mm 0.00 in0.0 mm 0.00 in0.0 mm
10:30 AM 59.9°F15.5°C 43.2°F6.2°C 54% 1.3 mph W2.1 kmh W 6.1 mph9.8 kmh 30.42 in1030.1 mb 0.00 in0.0 mm 0.00 in0.0 mm 0.00 in0.0 mm
10:40 AM 59.7°F15.4°C 42.6°F5.9°C 53% 1.2 mph W1.9 kmh W 7.9 mph12.7 kmh 30.42 in1030.1 mb 0.00 in0.0 mm 0.00 in0.0 mm 0.00 in0.0 mm
10:50 AM 59.9°F15.5°C 42.7°F5.9°C 53% 1.8 mph WSW2.9 kmh WSW 7.9 mph12.7 kmh 30.42 in1030.1 mb 0.00 in0.0 mm 0.00 in0.0 mm 0.00 in0.0 mm
11:00 AM 60.8°F16.0°C 43.6°F6.4°C 53% 1.6 mph WSW2.6 kmh WSW 6.4 mph10.3 kmh 30.42 in1030.1 mb 0.00 in0.0 mm 0.00 in0.0 mm 0.00 in0.0 mm
11:10 AM 61.7°F16.5°C 44.9°F7.2°C 54% 3.1 mph WSW5.0 kmh WSW 7.5 mph12.1 kmh 30.42 in1030.1 mb 0.00 in0.0 mm 0.00 in0.0 mm 0.00 in0.0 mm
11:20 AM 61.7°F16.5°C 44.4°F6.9°C 53% 2.1 mph WSW3.4 kmh WSW 6.8 mph10.9 kmh 30.39 in1029.1 mb 0.00 in0.0 mm 0.00 in0.0 mm 0.00 in0.0 mm
11:30 AM 62.4°F16.9°C 44.6°F7.0°C 52% 2.4 mph WNW3.9 kmh WNW 9.3 mph15.0 kmh 30.39 in1029.1 mb 0.00 in0.0 mm 0.00 in0.0 mm 0.00 in0.0 mm
11:40 AM 61.7°F16.5°C 43.4°F6.3°C 51% 3.1 mph W5.0 kmh W 10.0 mph16.1 kmh 30.39 in1029.1 mb 0.00 in0.0 mm 0.00 in0.0 mm 0.00 in0.0 mm
11:50 AM 61.5°F16.4°C 43.2°F6.2°C 51% 3.6 mph WNW5.8 kmh WNW 10.0 mph16.1 kmh 30.45 in1031.2 mb 0.00 in0.0 mm 0.00 in0.0 mm 0.00 in0.0 mm
12:00 PM 61.9°F16.6°C 43.5°F6.4°C 51% 3.4 mph NW5.5 kmh NW 11.5 mph18.5 kmh 30.42 in1030.1 mb 0.00 in0.0 mm 0.00 in0.0 mm 0.00 in0.0 mm
12:10 PM 61.0°F16.1°C 42.2°F5.7°C 50% 5.2 mph NNW8.4 kmh NNW 12.9 mph20.8 kmh 30.42 in1030.1 mb 0.00 in0.0 mm 0.00 in0.0 mm 0.00 in0.0 mm
12:20 PM 61.9°F16.6°C 43.5°F6.4°C 51% 3.1 mph WNW5.0 kmh WNW 8.6 mph13.8 kmh 30.45 in1031.2 mb 0.00 in0.0 mm 0.00 in0.0 mm 0.00 in0.0 mm
12:30 PM 62.8°F17.1°C 43.9°F6.6°C 50% 4.4 mph WNW7.1 kmh WNW 10.4 mph16.7 kmh 30.42 in1030.1 mb 0.00 in0.0 mm 0.00 in0.0 mm 0.00 in0.0 mm
12:40 PM 63.9°F17.7°C 44.9°F7.2°C 50% 4.1 mph W6.6 kmh W 15.4 mph24.8 kmh 30.42 in1030.1 mb 0.00 in0.0 mm 0.00 in0.0 mm 0.00 in0.0 mm
12:50 PM 64.2°F17.9°C 44.6°F7.0°C 49% 4.7 mph WNW7.6 kmh WNW 12.2 mph19.6 kmh 30.39 in1029.1 mb 0.00 in0.0 mm 0.00 in0.0 mm 0.00 in0.0 mm
01:00 PM 64.0°F17.8°C 44.5°F6.9°C 49% 5.9 mph NW9.5 kmh NW 12.2 mph19.6 kmh 30.39 in1029.1 mb 0.00 in0.0 mm 0.00 in0.0 mm 0.00 in0.0 mm
01:10 PM 64.0°F17.8°C 44.5°F6.9°C 49% 4.6 mph WNW7.4 kmh WNW 17.2 mph27.7 kmh 30.39 in1029.1 mb 0.00 in0.0 mm 0.00 in0.0 mm 0.00 in0.0 mm
01:20 PM 64.0°F17.8°C 44.5°F6.9°C 49% 4.5 mph W7.2 kmh W 12.9 mph20.8 kmh 30.39 in1029.1 mb 0.00 in0.0 mm 0.00 in0.0 mm 0.00 in0.0 mm
01:30 PM 64.9°F18.3°C 44.8°F7.1°C 48% 5.4 mph WNW8.7 kmh WNW 14.0 mph22.5 kmh 30.39 in1029.1 mb 0.00 in0.0 mm 0.00 in0.0 mm 0.00 in0.0 mm
01:40 PM 66.0°F18.9°C 46.3°F7.9°C 49% 4.2 mph W6.8 kmh W 13.6 mph21.9 kmh 30.39 in1029.1 mb 0.00 in0.0 mm 0.00 in0.0 mm 0.00 in0.0 mm
01:50 PM 64.8°F18.2°C 44.1°F6.7°C 47% 3.6 mph NW5.8 kmh NW 10.4 mph16.7 kmh 30.39 in1029.1 mb 0.00 in0.0 mm 0.00 in0.0 mm 0.00 in0.0 mm
02:00 PM 63.1°F17.3°C 40.9°F4.9°C 44% 5.2 mph WNW8.4 kmh WNW 14.0 mph22.5 kmh 30.39 in1029.1 mb 0.00 in0.0 mm 0.00 in0.0 mm 0.00 in0.0 mm
02:10 PM 63.3°F17.4°C 42.2°F5.7°C 46% 5.0 mph NW8.0 kmh NW 14.0 mph22.5 kmh 30.39 in1029.1 mb 0.00 in0.0 mm 0.00 in0.0 mm 0.00 in0.0 mm
02:20 PM 62.4°F16.9°C 40.2°F4.6°C 44% 6.4 mph NW10.3 kmh NW 15.4 mph24.8 kmh 30.39 in1029.1 mb 0.00 in0.0 mm 0.00 in0.0 mm 0.00 in0.0 mm
02:30 PM 61.9°F16.6°C 40.9°F4.9°C 46% 6.2 mph NW10.0 kmh NW 13.6 mph21.9 kmh 30.39 in1029.1 mb 0.00 in0.0 mm 0.00 in0.0 mm 0.00 in0.0 mm
02:40 PM 62.4°F16.9°C 41.4°F5.2°C 46% 5.9 mph NW9.5 kmh NW 14.0 mph22.5 kmh 30.39 in1029.1 mb 0.00 in0.0 mm 0.00 in0.0 mm 0.00 in0.0 mm
02:50 PM 63.7°F17.6°C 41.9°F5.5°C 45% 5.6 mph NW9.0 kmh NW 14.0 mph22.5 kmh 30.39 in1029.1 mb 0.00 in0.0 mm 0.00 in0.0 mm 0.00 in0.0 mm
03:00 PM 62.8°F17.1°C 40.5°F4.7°C 44% 5.4 mph NW8.7 kmh NW 15.0 mph24.1 kmh 30.39 in1029.1 mb 0.00 in0.0 mm 0.00 in0.0 mm 0.00 in0.0 mm
03:10 PM 62.2°F16.8°C 41.2°F5.1°C 46% 5.2 mph NW8.4 kmh NW 12.5 mph20.1 kmh 30.39 in1029.1 mb 0.00 in0.0 mm 0.00 in0.0 mm 0.00 in0.0 mm
03:20 PM 63.0°F17.2°C 41.3°F5.2°C 45% 6.5 mph NW10.5 kmh NW 19.3 mph31.1 kmh 30.36 in1028.1 mb 0.00 in0.0 mm 0.00 in0.0 mm 0.00 in0.0 mm
03:30 PM 63.3°F17.4°C 41.0°F5.0°C 44% 7.1 mph NW11.4 kmh NW 16.5 mph26.6 kmh 30.36 in1028.1 mb 0.00 in0.0 mm 0.00 in0.0 mm 0.00 in0.0 mm
03:40 PM 61.3°F16.3°C 38.6°F3.7°C 43% 6.7 mph NW10.8 kmh NW 13.6 mph21.9 kmh 30.36 in1028.1 mb 0.00 in0.0 mm 0.00 in0.0 mm 0.00 in0.0 mm
03:50 PM 61.3°F16.3°C 39.8°F4.3°C 45% 6.3 mph NW10.1 kmh NW 15.4 mph24.8 kmh 30.36 in1028.1 mb 0.00 in0.0 mm 0.00 in0.0 mm 0.00 in0.0 mm
04:00 PM 61.9°F16.6°C 40.3°F4.6°C 45% 5.8 mph NW9.3 kmh NW 11.8 mph19.0 kmh 30.36 in1028.1 mb 0.00 in0.0 mm 0.00 in0.0 mm 0.00 in0.0 mm
04:10 PM 62.8°F17.1°C 40.5°F4.7°C 44% 5.7 mph NW9.2 kmh NW 15.4 mph24.8 kmh 30.36 in1028.1 mb 0.00 in0.0 mm 0.00 in0.0 mm 0.00 in0.0 mm
04:20 PM 62.6°F17.0°C 40.4°F4.7°C 44% 6.2 mph NW10.0 kmh NW 14.0 mph22.5 kmh 30.33 in1027.1 mb 0.00 in0.0 mm 0.00 in0.0 mm 0.00 in0.0 mm
04:30 PM 60.4°F15.8°C 38.4°F3.6°C 44% 7.0 mph NW11.3 kmh NW 16.8 mph27.0 kmh 30.33 in1027.1 mb 0.00 in0.0 mm 0.00 in0.0 mm 0.00 in0.0 mm
04:40 PM 60.8°F16.0°C 39.3°F4.1°C 45% 5.9 mph NW9.5 kmh NW 14.3 mph23.0 kmh 30.33 in1027.1 mb 0.00 in0.0 mm 0.00 in0.0 mm 0.00 in0.0 mm
04:50 PM 61.3°F16.3°C 39.8°F4.3°C 45% 6.4 mph NW10.3 kmh NW 17.2 mph27.7 kmh 30.33 in1027.1 mb 0.00 in0.0 mm 0.00 in0.0 mm 0.00 in0.0 mm
05:00 PM 60.6°F15.9°C 39.1°F3.9°C 45% 5.5 mph NW8.9 kmh NW 12.5 mph20.1 kmh 30.36 in1028.1 mb 0.00 in0.0 mm 0.00 in0.0 mm 0.00 in0.0 mm
05:10 PM 60.6°F15.9°C 39.7°F4.3°C 46% 5.7 mph NW9.2 kmh NW 13.6 mph21.9 kmh 30.36 in1028.1 mb 0.00 in0.0 mm 0.00 in0.0 mm 0.00 in0.0 mm
05:20 PM 61.9°F16.6°C 40.9°F4.9°C 46% 6.6 mph NW10.6 kmh NW 13.6 mph21.9 kmh 30.36 in1028.1 mb 0.00 in0.0 mm 0.00 in0.0 mm 0.00 in0.0 mm
05:30 PM 62.2°F16.8°C 41.2°F5.1°C 46% 5.3 mph NW8.5 kmh NW 12.2 mph19.6 kmh 30.39 in1029.1 mb 0.00 in0.0 mm 0.00 in0.0 mm 0.00 in0.0 mm
05:40 PM 61.0°F16.1°C 40.0°F4.4°C 46% 7.7 mph NNW12.4 kmh NNW 13.6 mph21.9 kmh 30.39 in1029.1 mb 0.00 in0.0 mm 0.00 in0.0 mm 0.00 in0.0 mm
05:50 PM 60.4°F15.8°C 39.5°F4.2°C 46% 6.5 mph NNW10.5 kmh NNW 14.0 mph22.5 kmh 30.36 in1028.1 mb 0.00 in0.0 mm 0.00 in0.0 mm 0.00 in0.0 mm
06:00 PM 60.1°F15.6°C 39.2°F4.0°C 46% 5.5 mph NW8.9 kmh NW 11.8 mph19.0 kmh 30.36 in1028.1 mb 0.00 in0.0 mm 0.00 in0.0 mm 0.00 in0.0 mm
06:10 PM 59.5°F15.3°C 38.7°F3.7°C 46% 6.5 mph NNW10.5 kmh NNW 14.0 mph22.5 kmh 30.36 in1028.1 mb 0.00 in0.0 mm 0.00 in0.0 mm 0.00 in0.0 mm
06:20 PM 59.0°F15.0°C 38.8°F3.8°C 47% 4.8 mph NNW7.7 kmh NNW 12.2 mph19.6 kmh 30.36 in1028.1 mb 0.00 in0.0 mm 0.00 in0.0 mm 0.00 in0.0 mm
06:30 PM 58.6°F14.8°C 38.5°F3.6°C 47% 2.0 mph NW3.2 kmh NW 6.8 mph10.9 kmh 30.36 in1028.1 mb 0.00 in0.0 mm 0.00 in0.0 mm 0.00 in0.0 mm
06:40 PM 58.5°F14.7°C 38.8°F3.8°C 48% 0.3 mph N0.5 kmh N 5.0 mph8.0 kmh 30.36 in1028.1 mb 0.00 in0.0 mm 0.00 in0.0 mm 0.00 in0.0 mm
06:50 PM 58.5°F14.7°C 39.4°F4.1°C 49% Calm Calm -- 30.36 in1028.1 mb 0.00 in0.0 mm 0.00 in0.0 mm 0.00 in0.0 mm
07:00 PM 58.3°F14.6°C 39.7°F4.3°C 50% Calm Calm -- 30.36 in1028.1 mb 0.00 in0.0 mm 0.00 in0.0 mm 0.00 in0.0 mm
07:10 PM 57.6°F14.2°C 39.6°F4.2°C 51% Calm Calm -- 30.36 in1028.1 mb 0.00 in0.0 mm 0.00 in0.0 mm 0.00 in0.0 mm
07:20 PM 57.0°F13.9°C 39.1°F3.9°C 51% Calm Calm -- 30.36 in1028.1 mb 0.00 in0.0 mm 0.00 in0.0 mm 0.00 in0.0 mm
07:30 PM 56.5°F13.6°C 38.6°F3.7°C 51% Calm Calm -- 30.33 in1027.1 mb 0.00 in0.0 mm 0.00 in0.0 mm 0.00 in0.0 mm
07:40 PM 56.1°F13.4°C 38.2°F3.4°C 51% Calm Calm -- 30.33 in1027.1 mb 0.00 in0.0 mm 0.00 in0.0 mm 0.00 in0.0 mm
07:50 PM 55.6°F13.1°C 38.2°F3.4°C 52% Calm Calm -- 30.36 in1028.1 mb 0.00 in0.0 mm 0.00 in0.0 mm 0.00 in0.0 mm
08:00 PM 55.2°F12.9°C 37.9°F3.3°C 52% 0.1 mph E0.2 kmh E 3.2 mph5.1 kmh 30.36 in1028.1 mb 0.00 in0.0 mm 0.00 in0.0 mm 0.00 in0.0 mm
08:10 PM 54.7°F12.6°C 36.9°F2.7°C 51% 0.1 mph E0.2 kmh E 2.5 mph4.0 kmh 30.36 in1028.1 mb 0.00 in0.0 mm 0.00 in0.0 mm 0.00 in0.0 mm
08:20 PM 54.3°F12.4°C 36.6°F2.6°C 51% 0.7 mph E1.1 kmh E 6.4 mph10.3 kmh 30.33 in1027.1 mb 0.00 in0.0 mm 0.00 in0.0 mm 0.00 in0.0 mm
08:30 PM 54.0°F12.2°C 36.2°F2.3°C 51% 1.1 mph E1.8 kmh E 6.8 mph10.9 kmh 30.36 in1028.1 mb 0.00 in0.0 mm 0.00 in0.0 mm 0.00 in0.0 mm
08:40 PM 53.4°F11.9°C 35.2°F1.8°C 50% 1.5 mph E2.4 kmh E 4.7 mph7.6 kmh 30.36 in1028.1 mb 0.00 in0.0 mm 0.00 in0.0 mm 0.00 in0.0 mm
08:50 PM 52.7°F11.5°C 34.1°F1.2°C 49% 2.0 mph E3.2 kmh E 8.9 mph14.3 kmh 30.36 in1028.1 mb 0.00 in0.0 mm 0.00 in0.0 mm 0.00 in0.0 mm
09:00 PM 52.3°F11.3°C 33.7°F0.9°C 49% 1.9 mph E3.1 kmh E 6.8 mph10.9 kmh 30.36 in1028.1 mb 0.00 in0.0 mm 0.00 in0.0 mm 0.00 in0.0 mm
09:10 PM 51.8°F11.0°C 33.2°F0.7°C 49% 0.3 mph E0.5 kmh E 2.5 mph4.0 kmh 30.36 in1028.1 mb 0.00 in0.0 mm 0.00 in0.0 mm 0.00 in0.0 mm
09:20 PM 50.9°F10.5°C 32.9°F0.5°C 50% Calm Calm -- 30.36 in1028.1 mb 0.00 in0.0 mm 0.00 in0.0 mm 0.00 in0.0 mm
09:30 PM 50.4°F10.2°C 32.4°F0.2°C 50% Calm Calm -- 30.36 in1028.1 mb 0.00 in0.0 mm 0.00 in0.0 mm 0.00 in0.0 mm
09:40 PM 50.0°F10.0°C 32.1°F0.1°C 50% Calm Calm -- 30.36 in1028.1 mb 0.00 in0.0 mm 0.00 in0.0 mm 0.00 in0.0 mm
09:50 PM 49.8°F9.9°C 31.9°F-0.1°C 50% Calm Calm -- 30.36 in1028.1 mb 0.00 in0.0 mm 0.00 in0.0 mm 0.00 in0.0 mm
10:00 PM 49.6°F9.8°C 32.2°F0.1°C 51% 0.1 mph NE0.2 kmh NE 3.6 mph5.8 kmh 30.36 in1028.1 mb 0.00 in0.0 mm 0.00 in0.0 mm 0.00 in0.0 mm
10:10 PM 49.3°F9.6°C 31.9°F-0.1°C 51% 0.2 mph ENE0.3 kmh ENE 3.6 mph5.8 kmh 30.36 in1028.1 mb 0.00 in0.0 mm 0.00 in0.0 mm 0.00 in0.0 mm
10:20 PM 48.9°F9.4°C 31.6°F-0.2°C 51% 0.4 mph E0.6 kmh E 5.4 mph8.7 kmh 30.39 in1029.1 mb 0.00 in0.0 mm 0.00 in0.0 mm 0.00 in0.0 mm
10:30 PM 48.6°F9.2°C 31.2°F-0.4°C 51% Calm Calm -- 30.36 in1028.1 mb 0.00 in0.0 mm 0.00 in0.0 mm 0.00 in0.0 mm
10:40 PM 48.2°F9.0°C 30.9°F-0.6°C 51% 0.1 mph E0.2 kmh E 2.1 mph3.4 kmh 30.36 in1028.1 mb 0.00 in0.0 mm 0.00 in0.0 mm 0.00 in0.0 mm
10:50 PM 47.8°F8.8°C 31.0°F-0.6°C 52% Calm Calm -- 30.39 in1029.1 mb 0.00 in0.0 mm 0.00 in0.0 mm 0.00 in0.0 mm
11:00 PM 47.5°F8.6°C 30.7°F-0.7°C 52% 0.1 mph E0.2 kmh E 3.2 mph5.1 kmh 30.39 in1029.1 mb 0.00 in0.0 mm 0.00 in0.0 mm 0.00 in0.0 mm
11:10 PM 47.1°F8.4°C 30.4°F-0.9°C 52% Calm Calm -- 30.39 in1029.1 mb 0.00 in0.0 mm 0.00 in0.0 mm 0.00 in0.0 mm
11:20 PM 46.8°F8.2°C 30.0°F-1.1°C 52% Calm Calm -- 30.36 in1028.1 mb 0.00 in0.0 mm 0.00 in0.0 mm 0.00 in0.0 mm
11:30 PM 46.4°F8.0°C 30.2°F-1.0°C 53% 0.8 mph E1.3 kmh E 5.0 mph8.0 kmh 30.36 in1028.1 mb 0.00 in0.0 mm 0.00 in0.0 mm 0.00 in0.0 mm
11:40 PM 45.9°F7.7°C 29.7°F-1.3°C 53% 0.6 mph E1.0 kmh E 4.7 mph7.6 kmh 30.36 in1028.1 mb 0.00 in0.0 mm 0.00 in0.0 mm 0.00 in0.0 mm
11:50 PM 45.5°F7.5°C 29.8°F-1.2°C 54% 0.6 mph E1.0 kmh E 4.3 mph6.9 kmh 30.33 in1027.1 mb 0.00 in0.0 mm 0.00 in0.0 mm 0.00 in0.0 mm